Time;durP1;ratioP1;P1;durP2;ratioP2;P2;SDS_P1;SDS_P2;PMS_P1;PMS_P2;Temp;Humidity;BMP_temperature;BMP_pressure;BME280_temperature;BME280_humidity;BME280_pressure;Samples;Min_cycle;Max_cycle;Signal;HPM_P1;HPM_P2
2023/01/16 00:00:55;;;;;;;4.15;1.95;;;;;;;;;;5058591;28;20024;-85
2023/01/16 00:03:21;;;;;;;5.65;3.10;;;;;;;;;;5060262;28;20020;-85
2023/01/16 00:05:46;;;;;;;1.83;0.90;;;;;;;;;;5059534;28;20024;-84
2023/01/16 00:08:12;;;;;;;2.17;1.63;;;;;;;;;;5060789;28;20021;-87
2023/01/16 00:10:37;;;;;;;2.35;2.15;;;;;;;;;;5059700;28;20044;-86
2023/01/16 00:13:03;;;;;;;3.33;3.00;;;;;;;;;;5063225;28;20033;-85
2023/01/16 00:15:28;;;;;;;5.25;3.33;;;;;;;;;;5059240;28;20033;-84
2023/01/16 00:17:54;;;;;;;2.70;2.45;;;;;;;;;;5060855;28;20028;-86
2023/01/16 00:20:20;;;;;;;2.70;2.45;;;;;;;;;;5061165;28;20021;-85
2023/01/16 00:22:46;;;;;;;3.47;2.28;;;;;;;;;;5062606;28;20116;-86
2023/01/16 00:25:11;;;;;;;4.13;1.52;;;;;;;;;;5064401;28;20488;-84
2023/01/16 00:27:37;;;;;;;2.13;1.60;;;;;;;;;;5062220;28;20391;-86
2023/01/16 00:30:04;;;;;;;5.10;1.98;;;;;;;;;;5064107;28;20025;-84
2023/01/16 00:32:29;;;;;;;9.70;5.05;;;;;;;;;;5059254;28;20389;-87
2023/01/16 00:34:54;;;;;;;8.45;4.85;;;;;;;;;;5062875;28;20194;-87
2023/01/16 00:37:20;;;;;;;2.65;1.95;;;;;;;;;;5064776;28;20029;-85
2023/01/16 00:39:45;;;;;;;7.03;3.72;;;;;;;;;;5059161;28;20021;-85
2023/01/16 00:42:11;;;;;;;8.63;4.43;;;;;;;;;;5066353;28;20078;-84
2023/01/16 00:44:36;;;;;;;5.05;3.03;;;;;;;;;;5062826;28;20098;-86
2023/01/16 00:47:02;;;;;;;3.22;2.38;;;;;;;;;;5060437;28;20108;-86
2023/01/16 00:49:28;;;;;;;1.60;1.50;;;;;;;;;;5061863;28;20025;-87
2023/01/16 00:51:53;;;;;;;4.72;2.20;;;;;;;;;;5060598;28;20035;-85
2023/01/16 00:54:19;;;;;;;2.95;2.00;;;;;;;;;;5056705;28;20020;-85
2023/01/16 00:56:44;;;;;;;2.88;1.98;;;;;;;;;;5059979;28;20070;-86
2023/01/16 00:59:11;;;;;;;2.08;1.52;;;;;;;;;;5068180;28;20039;-85
2023/01/16 01:01:37;;;;;;;4.45;2.63;;;;;;;;;;5064857;28;20119;-86
2023/01/16 01:04:03;;;;;;;2.25;2.05;;;;;;;;;;5057669;28;20028;-85
2023/01/16 01:06:28;;;;;;;1.80;1.50;;;;;;;;;;5062965;28;20465;-84
2023/01/16 01:08:54;;;;;;;5.03;1.23;;;;;;;;;;5060576;28;20070;-84
2023/01/16 01:11:19;;;;;;;0.90;0.88;;;;;;;;;;5059493;28;20048;-86
2023/01/16 01:13:45;;;;;;;1.27;1.17;;;;;;;;;;5060319;28;20028;-84
2023/01/16 01:16:11;;;;;;;6.32;3.00;;;;;;;;;;5062187;28;20025;-85
2023/01/16 01:18:37;;;;;;;2.33;1.80;;;;;;;;;;5066518;28;20028;-84
2023/01/16 01:21:03;;;;;;;1.70;1.58;;;;;;;;;;5069991;28;20432;-85
2023/01/16 01:23:29;;;;;;;6.22;2.55;;;;;;;;;;5072448;28;20044;-85
2023/01/16 01:25:54;;;;;;;2.15;1.33;;;;;;;;;;5068850;28;20078;-84
2023/01/16 01:28:20;;;;;;;1.95;1.83;;;;;;;;;;5063649;28;20028;-87
2023/01/16 01:30:45;;;;;;;5.03;3.33;;;;;;;;;;5058653;28;20041;-84
2023/01/16 01:33:11;;;;;;;3.40;2.58;;;;;;;;;;5062143;28;20522;-85
2023/01/16 01:35:37;;;;;;;3.33;2.53;;;;;;;;;;5066484;28;20051;-86
2023/01/16 01:38:03;;;;;;;3.50;2.38;;;;;;;;;;5067510;28;20057;-85
2023/01/16 01:40:28;;;;;;;1.45;1.35;;;;;;;;;;5064241;28;20024;-85
2023/01/16 01:42:54;;;;;;;1.98;1.88;;;;;;;;;;5064884;28;20476;-85
2023/01/16 01:45:27;;;;;;;5.60;2.58;;;;;;;;;;5065422;28;20021;-85
2023/01/16 01:48:11;;;;;;;2.50;1.80;;;;;;;;;;5060639;28;20112;-84
2023/01/16 01:50:39;;;;;;;1.38;1.27;;;;;;;;;;5098311;28;20029;-84
2023/01/16 01:53:13;;;;;;;2.78;2.17;;;;;;;;;;5068150;28;20028;-85
2023/01/16 01:55:42;;;;;;;1.40;1.23;;;;;;;;;;5062476;28;20131;-85
2023/01/16 01:58:07;;;;;;;4.82;3.38;;;;;;;;;;5062631;28;20049;-85
2023/01/16 02:00:33;;;;;;;5.15;2.10;;;;;;;;;;5065723;28;20083;-85
2023/01/16 02:03:12;;;;;;;4.88;2.53;;;;;;;;;;5055497;28;20404;-83
2023/01/16 02:05:44;;;;;;;2.08;1.95;;;;;;;;;;5062106;28;20031;-84
2023/01/16 02:08:14;;;;;;;2.35;2.13;;;;;;;;;;5064927;28;20030;-87
2023/01/16 02:10:53;;;;;;;3.97;1.95;;;;;;;;;;5066974;28;20021;-87
2023/01/16 02:13:19;;;;;;;4.15;2.92;;;;;;;;;;5064939;28;20035;-87
2023/01/16 02:21:25;;;;;;;3.15;2.03;;;;;;;;;;5063815;28;20027;-89
2023/01/16 02:24:03;;;;;;;3.53;2.38;;;;;;;;;;5065742;28;20107;-87
2023/01/16 02:27:03;;;;;;;4.95;3.03;;;;;;;;;;5062690;28;20028;-86
2023/01/16 02:29:35;;;;;;;6.00;2.72;;;;;;;;;;5062784;28;20112;-87
2023/01/16 02:32:15;;;;;;;3.22;2.20;;;;;;;;;;5061480;28;20021;-86
2023/01/16 02:34:55;;;;;;;2.17;1.73;;;;;;;;;;5058597;28;20055;-88
2023/01/16 02:37:40;;;;;;;1.70;1.60;;;;;;;;;;5062971;28;20112;-86
2023/01/16 02:40:35;;;;;;;3.47;2.40;;;;;;;;;;5062546;28;20044;-87
2023/01/16 02:43:07;;;;;;;2.22;2.03;;;;;;;;;;5063498;28;20024;-85
2023/01/16 02:45:48;;;;;;;3.50;2.45;;;;;;;;;;5062733;28;20088;-86
2023/01/16 02:48:37;;;;;;;2.95;1.30;;;;;;;;;;5061731;28;20080;-85
2023/01/16 02:51:21;;;;;;;5.50;2.38;;;;;;;;;;5059641;28;20032;-86
2023/01/16 02:54:18;;;;;;;4.03;2.50;;;;;;;;;;5061433;28;20499;-86
2023/01/16 02:56:48;;;;;;;4.88;3.10;;;;;;;;;;5055019;28;20101;-86
2023/01/16 02:59:16;;;;;;;6.72;1.90;;;;;;;;;;5066220;28;20056;-86
2023/01/16 03:01:44;;;;;;;4.70;2.92;;;;;;;;;;5065462;28;20028;-85
2023/01/16 03:04:44;;;;;;;4.05;3.40;;;;;;;;;;5061936;28;20048;-85
2023/01/16 03:07:18;;;;;;;2.47;1.50;;;;;;;;;;5061820;28;20052;-85
2023/01/16 03:09:56;;;;;;;2.80;2.60;;;;;;;;;;5060185;28;20020;-86
2023/01/16 03:12:43;;;;;;;3.33;1.85;;;;;;;;;;5060945;28;20556;-86
2023/01/16 03:15:20;;;;;;;3.03;1.73;;;;;;;;;;5064342;28;20024;-87
2023/01/16 03:18:10;;;;;;;3.90;1.90;;;;;;;;;;5064797;28;20025;-86
2023/01/16 03:20:55;;;;;;;3.60;1.90;;;;;;;;;;5064018;28;20022;-85
2023/01/16 03:23:44;;;;;;;1.98;1.77;;;;;;;;;;5057778;28;20020;-86
2023/01/16 03:26:17;;;;;;;2.07;1.90;;;;;;;;;;5054339;28;20029;-85
2023/01/16 03:28:58;;;;;;;3.67;2.70;;;;;;;;;;5060592;28;20032;-85
2023/01/16 03:32:16;;;;;;;3.75;2.00;;;;;;;;;;5061326;28;20036;-85
2023/01/16 03:34:55;;;;;;;1.50;1.20;;;;;;;;;;5018530;28;20036;-86
2023/01/16 03:37:52;;;;;;;1.95;1.77;;;;;;;;;;5063492;28;20112;-88
2023/01/16 03:40:27;;;;;;;1.92;1.48;;;;;;;;;;5044610;28;20048;-86
2023/01/16 03:43:29;;;;;;;4.05;1.95;;;;;;;;;;5062771;28;20111;-86
2023/01/16 03:46:03;;;;;;;2.03;1.40;;;;;;;;;;5067013;28;20041;-84
2023/01/16 03:48:50;;;;;;;1.27;1.17;;;;;;;;;;5061022;28;20035;-83
2023/01/16 03:51:32;;;;;;;1.98;1.80;;;;;;;;;;5060843;28;20029;-86
2023/01/16 03:54:21;;;;;;;2.20;1.15;;;;;;;;;;5060970;28;20369;-84
2023/01/16 03:57:13;;;;;;;1.58;1.33;;;;;;;;;;5061266;28;20045;-85
2023/01/16 03:59:42;;;;;;;2.53;1.95;;;;;;;;;;5053035;28;20136;-87
2023/01/16 04:02:13;;;;;;;2.92;2.72;;;;;;;;;;5061656;28;20075;-86
2023/01/16 04:04:49;;;;;;;4.85;2.35;;;;;;;;;;5059525;28;20037;-85
2023/01/16 04:07:40;;;;;;;1.50;1.40;;;;;;;;;;5060178;28;20104;-86
2023/01/16 04:10:11;;;;;;;1.98;1.25;;;;;;;;;;5057541;28;20028;-87
2023/01/16 04:12:45;;;;;;;7.15;3.35;;;;;;;;;;5055649;28;20032;-85
2023/01/16 04:15:10;;;;;;;6.80;2.60;;;;;;;;;;5057914;28;20024;-86
2023/01/16 04:17:38;;;;;;;1.98;1.75;;;;;;;;;;5055800;28;20377;-85
2023/01/16 04:20:05;;;;;;;0.93;0.93;;;;;;;;;;5059389;28;20016;-85
2023/01/16 04:22:31;;;;;;;2.08;1.45;;;;;;;;;;5057056;28;20105;-87
2023/01/16 04:25:00;;;;;;;2.65;1.77;;;;;;;;;;5061895;28;20476;-85
2023/01/16 04:27:26;;;;;;;4.00;1.87;;;;;;;;;;5063092;28;20422;-85
2023/01/16 04:29:51;;;;;;;3.53;2.45;;;;;;;;;;5064673;28;20017;-85
2023/01/16 04:32:17;;;;;;;4.13;3.15;;;;;;;;;;5059387;28;20034;-85
2023/01/16 04:34:42;;;;;;;1.48;1.38;;;;;;;;;;5063608;28;20037;-85
2023/01/16 04:37:11;;;;;;;3.35;1.58;;;;;;;;;;5069279;28;20066;-85
2023/01/16 04:39:37;;;;;;;2.40;1.73;;;;;;;;;;5060385;28;20499;-85
2023/01/16 04:42:02;;;;;;;4.43;1.83;;;;;;;;;;5063287;28;20100;-85
2023/01/16 04:44:28;;;;;;;2.97;0.95;;;;;;;;;;5061206;28;20035;-86
2023/01/16 04:46:53;;;;;;;2.55;1.83;;;;;;;;;;5064467;28;20031;-83
2023/01/16 04:49:19;;;;;;;3.63;2.28;;;;;;;;;;5061535;28;20017;-85
2023/01/16 04:51:45;;;;;;;2.13;1.88;;;;;;;;;;5059129;28;20024;-87
2023/01/16 04:54:14;;;;;;;4.80;2.78;;;;;;;;;;5064151;28;20017;-85
2023/01/16 04:56:41;;;;;;;2.25;2.03;;;;;;;;;;5076574;28;20075;-86
2023/01/16 04:59:07;;;;;;;1.88;1.35;;;;;;;;;;5069578;28;20039;-87
2023/01/16 05:01:34;;;;;;;0.70;0.70;;;;;;;;;;5070753;28;20032;-84
2023/01/16 05:04:04;;;;;;;1.70;1.50;;;;;;;;;;5062175;28;20045;-85
2023/01/16 05:06:30;;;;;;;;;;;;;;;;;;5063098;28;20020;-85
2023/01/16 05:08:55;;;;;;;1.83;1.52;;;;;;;;;;5069173;28;19919;-85
2023/01/16 05:11:21;;;;;;;5.35;1.45;;;;;;;;;;5065491;28;20051;-84
2023/01/16 05:13:46;;;;;;;3.47;1.70;;;;;;;;;;5056915;28;20017;-83
2023/01/16 05:16:11;;;;;;;3.55;2.25;;;;;;;;;;5063132;28;20047;-84
2023/01/16 05:18:37;;;;;;;2.13;1.92;;;;;;;;;;5061054;28;20398;-85
2023/01/16 05:21:03;;;;;;;5.25;1.75;;;;;;;;;;5059584;28;20111;-84
2023/01/16 05:23:29;;;;;;;3.08;1.38;;;;;;;;;;5064108;28;20036;-82
2023/01/16 05:25:54;;;;;;;2.83;2.13;;;;;;;;;;5066938;28;20024;-82
2023/01/16 05:28:20;;;;;;;2.20;1.33;;;;;;;;;;5056688;28;20047;-84
2023/01/16 05:30:48;;;;;;;0.85;0.80;;;;;;;;;;5057043;28;20030;-82
2023/01/16 05:33:13;;;;;;;5.05;2.58;;;;;;;;;;5063160;28;20024;-83
2023/01/16 05:35:39;;;;;;;1.55;1.30;;;;;;;;;;5054197;28;20021;-87
2023/01/16 05:38:04;;;;;;;1.25;0.80;;;;;;;;;;5053658;28;20017;-84
2023/01/16 05:40:29;;;;;;;2.80;1.75;;;;;;;;;;5058861;28;20469;-80
2023/01/16 05:42:55;;;;;;;4.07;2.78;;;;;;;;;;5052576;28;20029;-86
2023/01/16 05:45:20;;;;;;;1.42;1.23;;;;;;;;;;5062910;28;20036;-85
2023/01/16 05:47:46;;;;;;;4.97;3.80;;;;;;;;;;5060500;28;20452;-83
2023/01/16 05:50:11;;;;;;;4.18;2.22;;;;;;;;;;5062017;28;20052;-84
2023/01/16 05:52:36;;;;;;;17.83;7.25;;;;;;;;;;5054818;28;20056;-81
2023/01/16 05:55:02;;;;;;;7.30;4.85;;;;;;;;;;5066574;28;20119;-86
2023/01/16 05:57:29;;;;;;;9.43;4.90;;;;;;;;;;5061823;28;20097;-85
2023/01/16 05:59:54;;;;;;;5.28;3.17;;;;;;;;;;5064845;28;20021;-84
2023/01/16 06:02:20;;;;;;;8.98;6.50;;;;;;;;;;5057753;28;20538;-83
2023/01/16 06:04:46;;;;;;;5.78;5.25;;;;;;;;;;5055976;28;20037;-84
2023/01/16 06:07:12;;;;;;;6.93;5.25;;;;;;;;;;5057392;28;20029;-84
2023/01/16 06:09:37;;;;;;;4.45;3.97;;;;;;;;;;5058197;28;20072;-83
2023/01/16 06:12:03;;;;;;;5.82;4.20;;;;;;;;;;5055790;28;20024;-84
2023/01/16 06:14:28;;;;;;;3.08;2.47;;;;;;;;;;5056042;28;20464;-84
2023/01/16 06:16:54;;;;;;;7.15;3.30;;;;;;;;;;5060227;28;20039;-83
2023/01/16 06:19:19;;;;;;;4.05;3.05;;;;;;;;;;5051971;28;20074;-83
2023/01/16 06:21:44;;;;;;;3.70;3.40;;;;;;;;;;5058998;28;20527;-84
2023/01/16 06:24:11;;;;;;;4.22;3.53;;;;;;;;;;5062927;28;20482;-82
2023/01/16 06:26:37;;;;;;;5.85;3.85;;;;;;;;;;5057953;28;20098;-82
2023/01/16 06:29:02;;;;;;;5.35;4.25;;;;;;;;;;5061722;28;20436;-83
2023/01/16 06:31:28;;;;;;;7.22;4.82;;;;;;;;;;5064027;28;20036;-82
2023/01/16 06:33:53;;;;;;;4.03;2.53;;;;;;;;;;5060325;28;20036;-80
2023/01/16 06:36:19;;;;;;;2.53;2.33;;;;;;;;;;5058268;28;20068;-84
2023/01/16 06:38:44;;;;;;;5.82;3.78;;;;;;;;;;5058025;28;20372;-83
2023/01/16 06:41:10;;;;;;;5.72;4.47;;;;;;;;;;5057781;28;20036;-83
2023/01/16 06:43:36;;;;;;;3.78;2.85;;;;;;;;;;5059018;28;20033;-82
2023/01/16 06:46:01;;;;;;;4.20;3.65;;;;;;;;;;5055222;28;20058;-86
2023/01/16 06:48:27;;;;;;;2.60;2.10;;;;;;;;;;5063656;28;20025;-82
2023/01/16 06:50:53;;;;;;;2.58;1.65;;;;;;;;;;5061467;28;20068;-83
2023/01/16 06:53:19;;;;;;;4.22;3.38;;;;;;;;;;5056954;28;20052;-85
2023/01/16 06:55:44;;;;;;;5.68;3.22;;;;;;;;;;5061002;28;20492;-84
2023/01/16 06:58:10;;;;;;;3.10;2.80;;;;;;;;;;5058981;28;20032;-85
2023/01/16 07:00:36;;;;;;;6.38;3.92;;;;;;;;;;5058970;28;20029;-87
2023/01/16 07:03:02;;;;;;;2.85;1.83;;;;;;;;;;5065098;28;20515;-87
2023/01/16 07:05:29;;;;;;;6.45;4.07;;;;;;;;;;5065095;28;20027;-84
2023/01/16 07:07:56;;;;;;;3.10;2.17;;;;;;;;;;5056221;28;20029;-84
2023/01/16 07:10:21;;;;;;;10.38;4.18;;;;;;;;;;5055089;28;20025;-83
2023/01/16 07:12:52;;;;;;;10.23;5.35;;;;;;;;;;5060946;28;20094;-85
2023/01/16 07:23:44;;;;;;;13.82;7.57;;;;;;;;;;5062378;28;20571;-85
2023/01/16 07:26:12;;;;;;;12.50;8.15;;;;;;;;;;5090608;28;20122;-84
2023/01/16 07:28:38;;;;;;;11.32;7.28;;;;;;;;;;5060554;28;20448;-83
2023/01/16 07:31:05;;;;;;;7.25;5.28;;;;;;;;;;5058622;28;20063;-85
2023/01/16 07:33:31;;;;;;;12.98;6.28;;;;;;;;;;5061254;28;20024;-85
2023/01/16 07:35:56;;;;;;;9.95;6.93;;;;;;;;;;5059321;28;20024;-83
2023/01/16 07:38:21;;;;;;;17.10;7.03;;;;;;;;;;5054889;28;20036;-86
2023/01/16 07:40:47;;;;;;;10.40;5.93;;;;;;;;;;5060178;28;20021;-86
2023/01/16 07:43:13;;;;;;;18.00;7.07;;;;;;;;;;5062195;28;20484;-86
2023/01/16 07:45:38;;;;;;;9.80;6.72;;;;;;;;;;5055314;28;20028;-86
2023/01/16 07:48:04;;;;;;;7.32;5.82;;;;;;;;;;5056634;28;20032;-85
2023/01/16 07:50:29;;;;;;;7.30;6.32;;;;;;;;;;5054219;28;20029;-86
2023/01/16 07:52:55;;;;;;;16.38;9.02;;;;;;;;;;5064709;28;20029;-88
2023/01/16 07:55:21;;;;;;;10.23;7.32;;;;;;;;;;5054971;28;20060;-86
2023/01/16 07:57:46;;;;;;;10.48;4.78;;;;;;;;;;5056434;28;20021;-86
2023/01/16 08:00:12;;;;;;;8.05;7.13;;;;;;;;;;5059926;28;20103;-83
2023/01/16 08:02:39;;;;;;;10.20;7.15;;;;;;;;;;5054024;28;20048;-87
2023/01/16 08:05:08;;;;;;;14.68;8.68;;;;;;;;;;5057214;28;20037;-86
2023/01/16 08:07:34;;;;;;;16.65;9.63;;;;;;;;;;5062527;28;20091;-91
2023/01/16 08:10:02;;;;;;;14.63;7.95;;;;;;;;;;5061336;28;20028;-86
2023/01/16 08:12:28;;;;;;;24.95;13.75;;;;;;;;;;5058590;28;20028;-87
2023/01/16 08:14:53;;;;;;;14.07;10.63;;;;;;;;;;5061338;28;20025;-85
2023/01/16 08:17:19;;;;;;;33.15;14.85;;;;;;;;;;5058726;28;20017;-83
2023/01/16 08:19:44;;;;;;;14.77;7.03;;;;;;;;;;5064122;28;20021;-89
2023/01/16 08:22:09;;;;;;;16.02;8.07;;;;;;;;;;5062453;28;20041;-86
2023/01/16 08:24:35;;;;;;;15.27;9.10;;;;;;;;;;5064747;28;20036;-86
2023/01/16 08:27:01;;;;;;;10.45;6.47;;;;;;;;;;5057865;28;20020;-84
2023/01/16 08:29:26;;;;;;;11.57;5.55;;;;;;;;;;5056673;28;20032;-84
2023/01/16 08:31:51;;;;;;;8.48;5.63;;;;;;;;;;5060794;28;20032;-86
2023/01/16 08:34:17;;;;;;;16.13;8.00;;;;;;;;;;5059965;28;20095;-87
2023/01/16 08:36:43;;;;;;;9.68;7.03;;;;;;;;;;5070867;28;20020;-83
2023/01/16 08:39:12;;;;;;;13.80;7.90;;;;;;;;;;5054286;28;20028;-84
2023/01/16 08:52:56;;;;;;;9.93;5.88;;;;;;;;;;5049813;28;20453;-88
2023/01/16 08:55:21;;;;;;;8.13;6.68;;;;;;;;;;5058682;28;20068;-85
2023/01/16 08:57:47;;;;;;;8.45;6.28;;;;;;;;;;5056190;28;20036;-84
2023/01/16 09:00:12;;;;;;;8.05;5.38;;;;;;;;;;5048486;28;20036;-86
2023/01/16 09:02:38;;;;;;;8.13;5.55;;;;;;;;;;5054862;28;20071;-86
2023/01/16 09:05:04;;;;;;;12.40;5.65;;;;;;;;;;5061577;28;20073;-85
2023/01/16 09:07:30;;;;;;;12.93;8.23;;;;;;;;;;5052820;28;20045;-86
2023/01/16 09:09:55;;;;;;;8.48;5.65;;;;;;;;;;5052569;28;20060;-87
2023/01/16 09:15:05;;;;;;;4.65;3.13;;;;;;;;;;5054452;28;20059;-85
2023/01/16 09:17:31;;;;;;;3.78;2.92;;;;;;;;;;5056961;28;20036;-86
2023/01/16 09:19:56;;;;;;;5.53;3.95;;;;;;;;;;5053897;28;20025;-85
2023/01/16 09:22:22;;;;;;;5.35;3.28;;;;;;;;;;5057087;28;20081;-87
2023/01/16 09:24:48;;;;;;;3.90;3.35;;;;;;;;;;5060038;28;20368;-84
2023/01/16 09:27:14;;;;;;;9.45;4.07;;;;;;;;;;5055600;28;20024;-87
2023/01/16 09:29:40;;;;;;;7.82;4.63;;;;;;;;;;5055254;28;20044;-86
2023/01/16 09:32:09;;;;;;;6.70;3.92;;;;;;;;;;5059608;28;20020;-86
2023/01/16 09:34:38;;;;;;;7.63;4.90;;;;;;;;;;5057611;28;20115;-87
2023/01/16 09:37:05;;;;;;;9.43;5.53;;;;;;;;;;5052038;28;20056;-87
2023/01/16 09:39:32;;;;;;;9.90;4.35;;;;;;;;;;5059367;28;20025;-86
2023/01/16 09:44:47;;;;;;;6.70;4.13;;;;;;;;;;5058092;28;20040;-86
2023/01/16 09:47:12;;;;;;;6.70;3.47;;;;;;;;;;5066619;28;20029;-87
2023/01/16 09:49:51;;;;;;;6.00;5.05;;;;;;;;;;5065497;28;20052;-87
2023/01/16 10:00:59;;;;;;;7.18;4.80;;;;;;;;;;5061950;28;20023;-89
2023/01/16 10:03:25;;;;;;;7.68;6.15;;;;;;;;;;5065885;28;20111;-87
2023/01/16 10:06:13;;;;;;;10.88;5.28;;;;;;;;;;5060512;28;20455;-87
2023/01/16 10:08:50;;;;;;;9.30;5.38;;;;;;;;;;5054490;28;20465;-89
2023/01/16 10:11:57;;;;;;;11.18;6.35;;;;;;;;;;5060975;28;20546;-86
2023/01/16 10:14:43;;;;;;;8.18;4.32;;;;;;;;;;5060104;28;20025;-87
2023/01/16 10:17:22;;;;;;;12.98;5.88;;;;;;;;;;5058304;28;20389;-89
2023/01/16 10:20:07;;;;;;;19.13;6.38;;;;;;;;;;5057329;28;20124;-87
2023/01/16 10:22:40;;;;;;;10.30;4.65;;;;;;;;;;5057950;28;20033;-86
2023/01/16 10:25:08;;;;;;;8.20;4.80;;;;;;;;;;5060445;28;20036;-85
2023/01/16 10:27:52;;;;;;;9.75;5.13;;;;;;;;;;5065834;28;20039;-88
2023/01/16 10:30:18;;;;;;;8.25;4.75;;;;;;;;;;5058050;28;20082;-85
2023/01/16 10:32:57;;;;;;;5.70;4.38;;;;;;;;;;5062493;28;20037;-85
2023/01/16 10:35:43;;;;;;;10.15;4.63;;;;;;;;;;5063375;28;20048;-88
2023/01/16 10:49:25;;;;;;;5.25;3.60;;;;;;;;;;5067351;28;20329;-86
2023/01/16 10:49:28;;;;;;;5.40;3.53;;;;;;;;;;5062236;28;20036;-84
2023/01/16 10:52:03;;;;;;;5.70;4.20;;;;;;;;;;5067582;28;20039;-85
2023/01/16 10:54:28;;;;;;;7.82;4.38;;;;;;;;;;5056007;28;20480;-84
2023/01/16 10:56:57;;;;;;;5.30;4.10;;;;;;;;;;5061284;28;20037;-85
2023/01/16 10:59:23;;;;;;;6.68;3.85;;;;;;;;;;5060024;28;20029;-85
2023/01/16 11:01:51;;;;;;;8.57;4.30;;;;;;;;;;5061943;28;20372;-87
2023/01/16 11:04:19;;;;;;;6.80;3.25;;;;;;;;;;5054482;28;20384;-86
2023/01/16 11:06:45;;;;;;;3.22;2.03;;;;;;;;;;5058969;28;20052;-87
2023/01/16 11:09:13;;;;;;;3.00;2.15;;;;;;;;;;5052841;28;20060;-85
2023/01/16 11:20:09;;;;;;;;;;;;;;;;;;5062124;28;20423;-84
2023/01/16 11:22:39;;;;;;;7.97;2.67;;;;;;;;;;5063998;28;20347;-85
2023/01/16 11:25:05;;;;;;;5.93;2.78;;;;;;;;;;5060156;28;20021;-84
2023/01/16 11:27:36;;;;;;;1.25;0.98;;;;;;;;;;5059283;28;20052;-86
2023/01/16 11:30:06;;;;;;;2.28;1.20;;;;;;;;;;5059144;28;20025;-86
2023/01/16 11:32:37;;;;;;;3.35;2.08;;;;;;;;;;5061685;28;20025;-86
2023/01/16 11:35:12;;;;;;;2.80;1.95;;;;;;;;;;5057419;28;20104;-84
2023/01/16 11:37:39;;;;;;;3.72;2.97;;;;;;;;;;5063986;28;20083;-86
2023/01/16 11:40:05;;;;;;;2.83;2.28;;;;;;;;;;5060677;28;20028;-87
2023/01/16 11:48:22;;;;;;;1.67;1.58;;;;;;;;;;5061448;28;20500;-85
2023/01/16 11:51:12;;;;;;;3.53;2.22;;;;;;;;;;5062783;28;20037;-85
2023/01/16 11:53:38;;;;;;;3.88;2.88;;;;;;;;;;5058197;28;20044;-87
2023/01/16 11:56:18;;;;;;;3.95;2.70;;;;;;;;;;5061815;28;20131;-84
2023/01/16 11:59:24;;;;;;;2.33;1.73;;;;;;;;;;5060366;28;20548;-85
2023/01/16 12:02:21;;;;;;;2.83;2.05;;;;;;;;;;5057730;28;20023;-86
2023/01/16 12:08:12;;;;;;;3.47;2.58;;;;;;;;;;5060601;28;20116;-88
2023/01/16 12:10:56;;;;;;;4.35;3.08;;;;;;;;;;5057720;28;20064;-87
2023/01/16 12:14:20;;;;;;;4.57;2.20;;;;;;;;;;5057971;28;20036;-89
2023/01/16 12:17:11;;;;;;;3.35;2.47;;;;;;;;;;5048108;28;20036;-86
2023/01/16 12:19:53;;;;;;;7.00;4.10;;;;;;;;;;5051596;28;20533;-85
2023/01/16 12:22:25;;;;;;;2.38;1.95;;;;;;;;;;5057900;28;20028;-87
2023/01/16 12:25:05;;;;;;;8.27;5.07;;;;;;;;;;5060410;28;20370;-85
2023/01/16 12:27:58;;;;;;;2.13;1.88;;;;;;;;;;5058911;28;20554;-85
2023/01/16 12:30:36;;;;;;;3.65;3.03;;;;;;;;;;5059767;28;20465;-87
2023/01/16 12:33:07;;;;;;;2.58;2.22;;;;;;;;;;5057354;28;20032;-84
2023/01/16 12:36:08;;;;;;;5.07;2.90;;;;;;;;;;5058336;28;20457;-87
2023/01/16 12:38:40;;;;;;;4.40;2.80;;;;;;;;;;5055409;28;20041;-85
2023/01/16 12:44:05;;;;;;;3.58;3.28;;;;;;;;;;5061632;28;20514;-89
2023/01/16 12:46:46;;;;;;;5.07;3.30;;;;;;;;;;5060373;28;20029;-85
2023/01/16 12:49:11;;;;;;;5.32;3.22;;;;;;;;;;5055037;28;20562;-84
2023/01/16 12:51:48;;;;;;;10.23;4.90;;;;;;;;;;5051291;28;20096;-85
2023/01/16 12:54:22;;;;;;;12.90;4.88;;;;;;;;;;5061794;28;20028;-87
2023/01/16 12:56:54;;;;;;;15.40;6.82;;;;;;;;;;5057232;28;20369;-85
2023/01/16 12:59:35;;;;;;;15.32;7.85;;;;;;;;;;5057201;28;20457;-84
2023/01/16 13:02:13;;;;;;;9.73;6.07;;;;;;;;;;5055937;28;20028;-86
2023/01/16 13:05:07;;;;;;;5.28;3.92;;;;;;;;;;5061258;28;20075;-87
2023/01/16 13:07:43;;;;;;;9.30;6.05;;;;;;;;;;5058759;28;20123;-86
2023/01/16 13:15:43;;;;;;;12.68;7.22;;;;;;;;;;5056756;28;20107;-85
2023/01/16 13:18:23;;;;;;;11.93;6.83;;;;;;;;;;5062094;28;20108;-85
2023/01/16 13:20:54;;;;;;;30.58;15.82;;;;;;;;;;5062182;28;20480;-88
2023/01/16 13:23:42;;;;;;;15.63;8.60;;;;;;;;;;5059439;28;20548;-84
2023/01/16 13:26:11;;;;;;;14.40;8.20;;;;;;;;;;5065137;28;20025;-83
2023/01/16 13:28:45;;;;;;;12.45;7.07;;;;;;;;;;5065441;28;20033;-86
2023/01/16 13:31:40;;;;;;;10.40;5.60;;;;;;;;;;5059424;28;20040;-83
2023/01/16 13:34:42;;;;;;;14.23;7.57;;;;;;;;;;5052620;28;20120;-86
2023/01/16 13:37:28;;;;;;;17.15;10.18;;;;;;;;;;5026089;28;20123;-83
2023/01/16 13:40:05;;;;;;;16.60;11.88;;;;;;;;;;5066709;28;20762;-85
2023/01/16 13:42:33;;;;;;;19.30;8.30;;;;;;;;;;5063287;28;20031;-84
2023/01/16 13:47:50;;;;;;;10.95;7.78;;;;;;;;;;5053078;28;20079;-85
2023/01/16 13:50:22;;;;;;;13.05;6.78;;;;;;;;;;5062186;28;20032;-84
2023/01/16 13:52:48;;;;;;;8.02;4.75;;;;;;;;;;5061972;28;20028;-85
2023/01/16 13:55:28;;;;;;;8.38;5.90;;;;;;;;;;5057340;28;20074;-85
2023/01/16 13:57:56;;;;;;;6.75;3.95;;;;;;;;;;5061658;28;20033;-84
2023/01/16 14:00:23;;;;;;;11.23;5.18;;;;;;;;;;5060619;28;20024;-87
2023/01/16 14:03:03;;;;;;;9.13;5.55;;;;;;;;;;5057693;28;20461;-86
2023/01/16 14:05:37;;;;;;;3.78;2.92;;;;;;;;;;5059524;28;20439;-84
2023/01/16 14:11:00;;;;;;;13.63;6.10;;;;;;;;;;5061123;28;20082;-82
2023/01/16 14:13:40;;;;;;;5.65;3.70;;;;;;;;;;5059856;28;20117;-86
2023/01/16 14:18:55;;;;;;;7.05;4.05;;;;;;;;;;5054988;28;20079;-85
2023/01/16 14:21:28;;;;;;;10.80;6.28;;;;;;;;;;5062081;28;20020;-84
2023/01/16 14:24:01;;;;;;;9.60;6.20;;;;;;;;;;5063947;28;20503;-89
2023/01/16 14:26:36;;;;;;;10.05;6.78;;;;;;;;;;5057670;28;20025;-84
2023/01/16 14:29:11;;;;;;;10.65;5.40;;;;;;;;;;5053828;28;20108;-86
2023/01/16 14:31:51;;;;;;;12.98;6.22;;;;;;;;;;5063022;28;20033;-86
2023/01/16 14:34:21;;;;;;;8.77;4.57;;;;;;;;;;5056277;28;20037;-88
2023/01/16 14:36:51;;;;;;;4.75;4.35;;;;;;;;;;5058754;28;20024;-84
2023/01/16 14:39:34;;;;;;;8.02;5.50;;;;;;;;;;5059548;28;20029;-85
2023/01/16 14:57:14;;;;;;;7.07;4.05;;;;;;;;;;5050555;28;20052;-83
2023/01/16 14:59:48;;;;;;;9.10;5.90;;;;;;;;;;5063385;28;20150;-86
2023/01/16 15:02:31;;;;;;;7.80;6.65;;;;;;;;;;5053532;28;20029;-85
2023/01/16 15:05:12;;;;;;;12.15;5.93;;;;;;;;;;5058671;28;20033;-85
2023/01/16 15:07:46;;;;;;;6.35;4.45;;;;;;;;;;5055934;28;20025;-85
2023/01/16 15:10:15;;;;;;;9.68;5.10;;;;;;;;;;5054314;28;20071;-84
2023/01/16 15:12:43;;;;;;;13.57;6.88;;;;;;;;;;5052860;28;20025;-84
2023/01/16 15:15:20;;;;;;;9.93;6.75;;;;;;;;;;5057577;28;20493;-85
2023/01/16 15:23:29;;;;;;;9.02;5.57;;;;;;;;;;5058681;28;20039;-87
2023/01/16 15:26:04;;;;;;;8.88;4.82;;;;;;;;;;5052569;28;20021;-84
2023/01/16 15:29:07;;;;;;;11.02;6.55;;;;;;;;;;5061304;28;20032;-86
2023/01/16 15:31:36;;;;;;;4.50;3.97;;;;;;;;;;5054353;28;20031;-81
2023/01/16 15:34:21;;;;;;;10.45;7.05;;;;;;;;;;5057482;28;20032;-82
2023/01/16 15:36:49;;;;;;;19.55;10.20;;;;;;;;;;5056406;28;20037;-83
2023/01/16 15:39:29;;;;;;;16.23;9.13;;;;;;;;;;5060421;28;20051;-83
2023/01/16 15:47:57;;;;;;;13.07;5.65;;;;;;;;;;5058298;28;20050;-80
2023/01/16 15:50:53;;;;;;;16.30;10.13;;;;;;;;;;5057592;28;20029;-82
2023/01/16 15:53:19;;;;;;;7.82;5.28;;;;;;;;;;5056337;28;20538;-82
2023/01/16 15:55:50;;;;;;;10.48;5.68;;;;;;;;;;5053157;28;20052;-78
2023/01/16 15:58:18;;;;;;;7.22;4.88;;;;;;;;;;5054196;28;20483;-79
2023/01/16 16:00:44;;;;;;;10.95;5.80;;;;;;;;;;5057339;28;20456;-80
2023/01/16 16:03:19;;;;;;;10.27;6.03;;;;;;;;;;5060661;28;20034;-78
2023/01/16 16:05:49;;;;;;;8.68;4.45;;;;;;;;;;5052689;28;20040;-79
2023/01/16 16:08:19;;;;;;;7.38;4.30;;;;;;;;;;5051998;28;20024;-83
2023/01/16 16:13:29;;;;;;;13.90;6.38;;;;;;;;;;5053935;28;20104;-79
2023/01/16 16:19:37;;;;;;;7.78;4.65;;;;;;;;;;5055028;28;20055;-81
2023/01/16 16:24:53;;;;;;;6.25;4.82;;;;;;;;;;5054924;28;20059;-80
2023/01/16 16:27:19;;;;;;;3.65;3.03;;;;;;;;;;5052590;28;20025;-81
2023/01/16 16:29:51;;;;;;;5.65;3.95;;;;;;;;;;5056163;28;20484;-79
2023/01/16 16:32:17;;;;;;;11.52;4.93;;;;;;;;;;5050001;28;20032;-80
2023/01/16 16:34:54;;;;;;;7.25;4.13;;;;;;;;;;5060703;28;20024;-81
2023/01/16 16:37:20;;;;;;;3.95;3.40;;;;;;;;;;5051106;28;20032;-83
2023/01/16 16:40:01;;;;;;;6.70;4.13;;;;;;;;;;5056953;28;20529;-79
2023/01/16 16:42:26;;;;;;;10.90;5.25;;;;;;;;;;5055087;28;20024;-80
2023/01/16 16:45:17;;;;;;;5.75;5.07;;;;;;;;;;5059432;28;20086;-81
2023/01/16 16:47:47;;;;;;;11.05;5.38;;;;;;;;;;5050808;28;20086;-81
2023/01/16 16:50:33;;;;;;;8.82;5.55;;;;;;;;;;5055866;28;20118;-80
2023/01/16 16:53:13;;;;;;;8.50;4.90;;;;;;;;;;5053380;28;20068;-82
2023/01/16 16:55:46;;;;;;;9.52;8.20;;;;;;;;;;5051319;28;20040;-77
2023/01/16 16:58:21;;;;;;;10.40;7.57;;;;;;;;;;5057269;28;20017;-80
2023/01/16 17:00:47;;;;;;;18.65;11.57;;;;;;;;;;5055725;28;20051;-78
2023/01/16 17:03:16;;;;;;;21.70;10.90;;;;;;;;;;5056651;28;20409;-80
2023/01/16 17:05:41;;;;;;;12.52;7.78;;;;;;;;;;5054318;28;20032;-80